createdAt,value
2023-11-07T00:00:13.735Z,100531.50
2023-11-07T00:02:40.554Z,100543.13
2023-11-07T00:05:10.164Z,100548.09
2023-11-07T00:07:37.600Z,100560.47
2023-11-07T00:10:04.711Z,100567.31
2023-11-07T00:12:31.259Z,100564.50
2023-11-07T00:14:57.866Z,100571.41
2023-11-07T00:17:24.722Z,100570.63
2023-11-07T00:19:51.249Z,100573.97
2023-11-07T00:22:17.818Z,100568.56
2023-11-07T00:24:44.910Z,100567.44
2023-11-07T00:27:11.525Z,100569.81
2023-11-07T00:29:38.056Z,100582.06
2023-11-07T00:32:04.997Z,100574.44
2023-11-07T00:34:31.609Z,100581.44
2023-11-07T00:36:58.098Z,100580.63
2023-11-07T00:39:24.638Z,100572.84
2023-11-07T00:41:51.167Z,100571.75
2023-11-07T00:44:19.348Z,100574.09
2023-11-07T00:46:45.884Z,100588.75
2023-11-07T00:49:12.565Z,100593.81
2023-11-07T00:51:39.937Z,100590.31
2023-11-07T00:54:06.597Z,100597.31
2023-11-07T00:56:33.180Z,100593.03
2023-11-07T00:58:59.828Z,100593.38
2023-11-07T01:01:26.439Z,100602.25
2023-11-07T01:03:53.117Z,100591.75
2023-11-07T01:06:19.910Z,100590.31
2023-11-07T01:08:46.730Z,100583.34
2023-11-07T01:11:13.961Z,100593.81
2023-11-07T01:13:41.025Z,100594.25
2023-11-07T01:16:08.175Z,100597.75
2023-11-07T01:18:34.937Z,100593.56
2023-11-07T01:21:01.642Z,100599.31
2023-11-07T01:23:28.221Z,100599.66
2023-11-07T01:25:55.072Z,100603.50
2023-11-07T01:28:22.460Z,100601.91
2023-11-07T01:30:52.428Z,100609.00
2023-11-07T01:33:19.097Z,100609.00
2023-11-07T01:35:46.039Z,100614.75
2023-11-07T01:38:12.644Z,100608.56
2023-11-07T01:40:39.321Z,100604.28
2023-11-07T01:43:13.774Z,100607.78
2023-11-07T01:45:41.305Z,100602.38
2023-11-07T01:48:14.840Z,100607.78
2023-11-07T01:50:41.918Z,100612.06
2023-11-07T01:53:09.560Z,100608.56
2023-11-07T01:55:36.946Z,100608.13
2023-11-07T01:58:04.110Z,100603.84
2023-11-07T02:00:31.812Z,100607.19
2023-11-07T02:02:59.679Z,100618.00
2023-11-07T02:05:30.305Z,100615.44
2023-11-07T02:07:56.938Z,100623.22
2023-11-07T02:10:23.477Z,100617.47
2023-11-07T02:12:50.102Z,100615.09
2023-11-07T02:15:27.426Z,100620.94
2023-11-07T02:17:55.183Z,100618.94
2023-11-07T02:20:22.026Z,100615.09
2023-11-07T02:22:56.662Z,100611.94
2023-11-07T02:25:23.275Z,100617.00
2023-11-07T02:27:49.768Z,100609.69
2023-11-07T02:30:16.411Z,100613.97
2023-11-07T02:32:44.223Z,100614.75
2023-11-07T02:35:12.374Z,100615.09
2023-11-07T02:37:39.583Z,100626.25
2023-11-07T02:40:07.649Z,100625.47
2023-11-07T02:42:34.582Z,100623.91
2023-11-07T02:45:01.191Z,100625.47
2023-11-07T02:47:27.691Z,100625.47
2023-11-07T02:49:55.215Z,100620.06
2023-11-07T02:52:22.384Z,100618.50
2023-11-07T02:54:49.897Z,100607.31
2023-11-07T02:57:16.586Z,100610.81
2023-11-07T02:59:49.420Z,100616.09
2023-11-07T03:02:18.224Z,100602.25
2023-11-07T03:04:45.170Z,100603.50
2023-11-07T03:07:12.009Z,100612.84
2023-11-07T03:09:38.734Z,100610.47
2023-11-07T03:12:05.708Z,100617.13
2023-11-07T03:14:33.561Z,100619.81
2023-11-07T03:17:00.138Z,100614.88
2023-11-07T03:19:26.704Z,100613.75
2023-11-07T03:21:54.196Z,100607.22
2023-11-07T03:24:20.777Z,100608.44
2023-11-07T03:26:47.314Z,100625.03
2023-11-07T03:29:14.081Z,100612.28
2023-11-07T03:31:41.174Z,100619.72
2023-11-07T03:34:07.795Z,100621.19
2023-11-07T03:36:34.309Z,100620.84
2023-11-07T03:39:01.111Z,100612.72
2023-11-07T03:41:27.851Z,100624.00
2023-11-07T03:43:54.742Z,100626.03
2023-11-07T03:46:21.781Z,100622.22
2023-11-07T03:48:48.633Z,100623.00
2023-11-07T03:51:15.484Z,100630.75
2023-11-07T03:53:42.447Z,100626.47
2023-11-07T03:56:10.597Z,100625.34
2023-11-07T03:58:37.228Z,100621.53
2023-11-07T04:01:04.836Z,100633.59
2023-11-07T04:03:31.507Z,100633.59
2023-11-07T04:05:58.420Z,100627.84
2023-11-07T04:08:25.662Z,100629.44
2023-11-07T04:10:52.284Z,100630.56
2023-11-07T04:13:18.795Z,100622.78
2023-11-07T04:15:45.402Z,100629.28
2023-11-07T04:18:12.259Z,100638.53
2023-11-07T04:20:39.733Z,100629.53
2023-11-07T04:23:06.330Z,100645.31
2023-11-07T04:25:33.128Z,100644.84
2023-11-07T04:27:59.638Z,100633.56
2023-11-07T04:30:26.301Z,100637.06
2023-11-07T04:32:52.900Z,100629.63
2023-11-07T04:35:19.667Z,100630.31
2023-11-07T04:37:46.178Z,100618.25
2023-11-07T04:40:12.847Z,100628.28
2023-11-07T04:42:39.381Z,100624.00
2023-11-07T04:45:08.460Z,100628.63
2023-11-07T04:47:35.250Z,100628.97
2023-11-07T04:50:01.952Z,100636.63
2023-11-07T04:52:28.517Z,100629.31
2023-11-07T04:54:55.076Z,100655.53
2023-11-07T04:57:22.279Z,100646.16
2023-11-07T04:59:49.064Z,100638.06
2023-11-07T05:02:16.805Z,100643.47
2023-11-07T05:04:46.996Z,100643.81
2023-11-07T05:07:14.561Z,100645.72
2023-11-07T05:09:41.168Z,100641.00
2023-11-07T05:12:09.128Z,100633.53
2023-11-07T05:14:36.027Z,100641.66
2023-11-07T05:17:02.648Z,100638.06
2023-11-07T05:19:29.194Z,100634.91
2023-11-07T05:21:56.132Z,100641.44
2023-11-07T05:24:23.241Z,100646.69
2023-11-07T05:26:49.778Z,100639.56
2023-11-07T05:29:16.775Z,100641.81
2023-11-07T05:31:43.495Z,100654.22
2023-11-07T05:34:10.316Z,100648.34
2023-11-07T05:36:36.992Z,100647.53
2023-11-07T05:39:04.005Z,100649.59
2023-11-07T05:41:31.542Z,100651.19
2023-11-07T05:43:58.071Z,100658.00
2023-11-07T05:46:24.798Z,100656.09
2023-11-07T05:48:52.770Z,100657.91
2023-11-07T05:51:20.858Z,100662.88
2023-11-07T05:53:47.419Z,100657.78
2023-11-07T05:56:13.931Z,100660.81
2023-11-07T05:58:40.503Z,100668.13
2023-11-07T06:01:07.169Z,100671.16
2023-11-07T06:03:33.832Z,100672.28
2023-11-07T06:06:00.624Z,100683.88
2023-11-07T06:08:27.290Z,100677.34
2023-11-07T06:10:53.916Z,100676.72
2023-11-07T06:13:20.424Z,100682.56
2023-11-07T06:15:47.004Z,100686.84
2023-11-07T06:18:13.580Z,100687.63
2023-11-07T06:20:40.162Z,100689.19
2023-11-07T06:23:06.827Z,100688.41
2023-11-07T06:25:35.074Z,100690.78
2023-11-07T06:28:01.867Z,100688.53
2023-11-07T06:30:31.102Z,100682.69
2023-11-07T06:32:58.699Z,100688.53
2023-11-07T06:35:25.392Z,100690.78
2023-11-07T06:37:51.918Z,100686.50
2023-11-07T06:40:19.847Z,100692.69
2023-11-07T06:42:47.418Z,100700.81
2023-11-07T06:45:15.147Z,100697.31
2023-11-07T06:47:43.610Z,100692.69
2023-11-07T06:50:11.725Z,100698.09
2023-11-07T06:52:48.630Z,100694.59
2023-11-07T06:55:15.800Z,100699.56
2023-11-07T06:57:43.453Z,100699.56
2023-11-07T07:00:11.077Z,100696.19
2023-11-07T07:02:38.650Z,100695.41
2023-11-07T07:05:05.794Z,100708.25
2023-11-07T07:07:32.405Z,100710.47
2023-11-07T07:09:59.335Z,100705.06
2023-11-07T07:12:26.069Z,100713.00
2023-11-07T07:14:53.136Z,100721.88
2023-11-07T07:17:20.483Z,100702.66
2023-11-07T07:19:47.250Z,100714.41
2023-11-07T07:22:13.790Z,100716.19
2023-11-07T07:24:41.117Z,100725.53
2023-11-07T07:27:09.649Z,100732.53
2023-11-07T07:29:37.968Z,100730.63
2023-11-07T07:32:04.825Z,100731.84
2023-11-07T07:34:33.406Z,100730.72
2023-11-07T07:37:00.059Z,100730.06
2023-11-07T07:39:30.602Z,100731.63
2023-11-07T07:41:59.742Z,100733.88
2023-11-07T07:44:26.818Z,100734.69
2023-11-07T07:46:54.885Z,100734.69
2023-11-07T07:49:26.419Z,100735.47
2023-11-07T07:51:56.864Z,100751.69
2023-11-07T07:54:43.303Z,100757.88
2023-11-07T07:57:10.919Z,100758.03
2023-11-07T07:59:43.072Z,100764.22
2023-11-07T08:02:10.543Z,100759.59
2023-11-07T08:04:37.349Z,100762.63
2023-11-07T08:07:05.117Z,100754.88
2023-11-07T08:09:31.828Z,100758.22
2023-11-07T08:11:58.354Z,100776.34
2023-11-07T08:14:24.982Z,100758.44
2023-11-07T08:16:54.020Z,100763.84
2023-11-07T08:19:21.652Z,100764.16
2023-11-07T08:21:50.832Z,100768.75
2023-11-07T08:24:17.929Z,100775.44
2023-11-07T08:26:45.037Z,100770.50
2023-11-07T08:29:12.259Z,100776.78
2023-11-07T08:31:40.053Z,100785.50
2023-11-07T08:34:10.654Z,100787.53
2023-11-07T08:36:43.723Z,100781.16
2023-11-07T08:39:28.412Z,100789.84
2023-11-07T08:41:56.155Z,100794.84
2023-11-07T08:44:23.262Z,100793.97
2023-11-07T08:46:50.494Z,100801.50
2023-11-07T08:49:17.638Z,100803.56
2023-11-07T08:51:45.873Z,100800.28
2023-11-07T08:54:12.362Z,100795.81
2023-11-07T08:56:38.962Z,100809.00
2023-11-07T08:59:05.463Z,100805.69
2023-11-07T09:01:32.043Z,100811.00
2023-11-07T09:03:58.707Z,100804.00
2023-11-07T09:06:25.315Z,100811.00
2023-11-07T09:08:52.677Z,100812.47
2023-11-07T09:11:20.527Z,100807.41
2023-11-07T09:13:47.064Z,100807.25
2023-11-07T09:16:14.729Z,100807.59
2023-11-07T09:18:41.333Z,100799.81
2023-11-07T09:21:08.023Z,100818.59
2023-11-07T09:23:36.870Z,100814.47
2023-11-07T09:26:04.198Z,100817.97
2023-11-07T09:28:30.741Z,100814.47
2023-11-07T09:30:58.508Z,100822.69
2023-11-07T09:33:25.089Z,100812.81
2023-11-07T09:35:51.950Z,100825.19
2023-11-07T09:38:18.540Z,100809.31
2023-11-07T09:40:45.535Z,100815.81
2023-11-07T09:43:13.598Z,100828.09
2023-11-07T09:45:41.704Z,100833.97
2023-11-07T09:48:11.568Z,100834.75
2023-11-07T09:50:42.829Z,100827.13
2023-11-07T09:53:14.244Z,100833.53
2023-11-07T09:55:41.205Z,100830.44
2023-11-07T09:58:15.648Z,100830.00
2023-11-07T10:00:45.496Z,100832.59
2023-11-07T10:03:13.404Z,100836.09
2023-11-07T10:05:40.946Z,100839.41
2023-11-07T10:08:07.842Z,100829.94
2023-11-07T10:10:35.506Z,100839.28
2023-11-07T10:13:12.578Z,100836.69
2023-11-07T10:15:40.572Z,100831.72
2023-11-07T10:18:12.878Z,100833.66
2023-11-07T10:20:54.483Z,100843.94
2023-11-07T10:23:22.265Z,100838.25
2023-11-07T10:25:51.387Z,100835.34
2023-11-07T10:28:21.500Z,100834.31
2023-11-07T10:30:49.656Z,100839.16
2023-11-07T10:33:29.806Z,100840.50
2023-11-07T10:36:00.641Z,100844.00
2023-11-07T10:38:28.130Z,100848.75
2023-11-07T10:40:54.596Z,100843.41
2023-11-07T10:43:40.881Z,100849.41
2023-11-07T10:46:12.011Z,100837.91
2023-11-07T10:48:40.934Z,100847.59
2023-11-07T10:51:12.426Z,100849.72
2023-11-07T10:53:43.951Z,100844.41
2023-11-07T10:56:21.299Z,100853.53
2023-11-07T10:59:01.210Z,100846.97
2023-11-07T11:01:34.844Z,100852.38
2023-11-07T11:04:03.104Z,100850.31
2023-11-07T11:06:33.051Z,100853.59
2023-11-07T11:09:02.644Z,100852.25
2023-11-07T11:11:34.949Z,100855.84
2023-11-07T11:14:05.164Z,100852.03
2023-11-07T11:16:32.889Z,100847.81
2023-11-07T11:19:10.722Z,100857.63
2023-11-07T11:21:56.169Z,100856.50
2023-11-07T11:24:59.640Z,100850.66
2023-11-07T11:27:37.055Z,100857.63
2023-11-07T11:30:07.005Z,100853.13
2023-11-07T11:32:34.127Z,100849.97
2023-11-07T11:35:18.984Z,100849.38
2023-11-07T11:38:17.861Z,100854.59
2023-11-07T11:40:56.900Z,100848.63
2023-11-07T11:43:27.639Z,100853.28
2023-11-07T11:46:03.271Z,100839.19
2023-11-07T11:48:52.204Z,100851.28
2023-11-07T11:51:33.528Z,100858.09
2023-11-07T11:54:00.796Z,100860.75
2023-11-07T11:56:27.576Z,100857.31
2023-11-07T11:59:12.309Z,100852.41
2023-11-07T12:01:53.609Z,100851.78
2023-11-07T12:04:49.217Z,100858.38
2023-11-07T12:07:16.106Z,100849.59
2023-11-07T12:09:51.439Z,100840.03
2023-11-07T12:12:19.337Z,100853.34
2023-11-07T12:14:58.035Z,100850.22
2023-11-07T12:17:30.249Z,100846.09
2023-11-07T12:20:08.522Z,100838.00
2023-11-07T12:22:36.309Z,100844.03
2023-11-07T12:25:14.901Z,100838.56
2023-11-07T12:27:42.716Z,100840.00
2023-11-07T12:30:12.818Z,100835.22
2023-11-07T12:32:39.414Z,100842.28
2023-11-07T12:35:19.682Z,100843.97
2023-11-07T12:37:47.505Z,100844.69
2023-11-07T12:40:17.004Z,100840.53
2023-11-07T12:42:54.469Z,100827.84
2023-11-07T12:45:35.925Z,100838.19
2023-11-07T12:48:07.753Z,100837.06
2023-11-07T12:50:37.090Z,100848.03
2023-11-07T12:53:06.308Z,100847.03
2023-11-07T12:55:36.691Z,100834.97
2023-11-07T12:58:04.849Z,100837.94
2023-11-07T13:00:52.113Z,100840.25
2023-11-07T13:03:23.813Z,100834.59
2023-11-07T13:06:10.943Z,100841.44
2023-11-07T13:08:42.695Z,100846.50
2023-11-07T13:11:20.324Z,100847.66
2023-11-07T13:13:52.017Z,100841.88
2023-11-07T13:16:19.463Z,100841.00
2023-11-07T13:18:48.131Z,100851.59
2023-11-07T13:21:15.810Z,100842.75
2023-11-07T13:23:42.358Z,100838.81
2023-11-07T13:26:09.916Z,100848.09
2023-11-07T13:28:38.063Z,100840.28
2023-11-07T13:31:06.300Z,100845.66
2023-11-07T13:33:33.073Z,100842.50
2023-11-07T13:36:00.409Z,100846.44
2023-11-07T13:38:27.551Z,100846.81
2023-11-07T13:40:55.268Z,100849.50
2023-11-07T13:43:21.996Z,100846.88
2023-11-07T13:45:48.657Z,100845.94
2023-11-07T13:48:15.567Z,100852.09
2023-11-07T13:50:45.492Z,100851.06
2023-11-07T13:53:13.579Z,100852.00
2023-11-07T13:55:40.504Z,100862.66
2023-11-07T13:58:07.972Z,100846.09
2023-11-07T14:00:34.877Z,100851.25
2023-11-07T14:03:03.036Z,100862.31
2023-11-07T14:05:31.585Z,100854.78
2023-11-07T14:08:00.325Z,100849.50
2023-11-07T14:10:30.767Z,100857.59
2023-11-07T14:12:58.681Z,100854.34
2023-11-07T14:15:33.910Z,100866.34
2023-11-07T14:18:08.127Z,100861.25
2023-11-07T14:20:39.918Z,100859.22
2023-11-07T14:23:07.878Z,100857.22
2023-11-07T14:25:34.426Z,100860.66
2023-11-07T14:28:05.807Z,100861.25
2023-11-07T14:30:39.558Z,100864.78
2023-11-07T14:33:07.616Z,100860.66
2023-11-07T14:35:34.992Z,100871.38
2023-11-07T14:38:01.566Z,100857.44
2023-11-07T14:40:30.736Z,100864.47
2023-11-07T14:42:59.048Z,100863.78
2023-11-07T14:45:26.350Z,100860.38
2023-11-07T14:47:54.448Z,100856.84
2023-11-07T14:50:21.473Z,100859.72
2023-11-07T14:52:49.289Z,100858.59
2023-11-07T14:55:20.785Z,100868.47
2023-11-07T14:57:49.742Z,100869.63
2023-11-07T15:00:43.969Z,100875.59
2023-11-07T15:03:12.050Z,100871.59
2023-11-07T15:05:40.401Z,100866.94
2023-11-07T15:08:07.426Z,100887.38
2023-11-07T15:10:34.235Z,100876.34
2023-11-07T15:13:02.193Z,100870.91
2023-11-07T15:15:30.441Z,100877.00
2023-11-07T15:17:58.835Z,100874.47
2023-11-07T15:20:32.122Z,100883.22
2023-11-07T15:23:01.942Z,100886.19
2023-11-07T15:25:32.050Z,100885.28
2023-11-07T15:27:59.134Z,100871.28
2023-11-07T15:30:25.843Z,100880.81
2023-11-07T15:32:52.647Z,100874.50
2023-11-07T15:35:19.721Z,100873.59
2023-11-07T15:37:47.896Z,100880.09
2023-11-07T15:40:15.902Z,100878.38
2023-11-07T15:42:43.808Z,100873.66
2023-11-07T15:45:14.856Z,100864.31
2023-11-07T15:47:43.730Z,100863.50
2023-11-07T15:50:15.619Z,100871.19
2023-11-07T15:52:51.440Z,100869.59
2023-11-07T15:55:26.420Z,100866.91
2023-11-07T15:57:52.920Z,100868.72
2023-11-07T16:00:20.116Z,100867.81
2023-11-07T16:02:49.240Z,100860.75
2023-11-07T16:05:16.965Z,100860.63
2023-11-07T16:07:44.480Z,100865.94
2023-11-07T16:10:12.974Z,100856.94
2023-11-07T16:12:46.466Z,100869.16
2023-11-07T16:15:13.134Z,100862.72
2023-11-07T16:17:46.575Z,100868.50
2023-11-07T16:20:21.709Z,100876.19
2023-11-07T16:22:48.641Z,100873.00
2023-11-07T16:25:17.085Z,100871.44
2023-11-07T16:27:43.960Z,100869.84
2023-11-07T16:30:10.967Z,100870.56
2023-11-07T16:32:37.697Z,100874.84
2023-11-07T16:35:06.242Z,100865.47
2023-11-07T16:37:36.111Z,100871.22
2023-11-07T16:40:05.622Z,100872.03
2023-11-07T16:42:32.542Z,100865.66
2023-11-07T16:44:59.277Z,100875.28
2023-11-07T16:47:25.865Z,100878.34
2023-11-07T16:49:52.797Z,100877.88
2023-11-07T16:52:22.013Z,100872.44
2023-11-07T16:54:49.380Z,100877.31
2023-11-07T16:57:16.718Z,100876.41
2023-11-07T16:59:43.562Z,100886.38
2023-11-07T17:02:10.749Z,100876.19
2023-11-07T17:04:38.509Z,100876.88
2023-11-07T17:07:06.439Z,100871.78
2023-11-07T17:09:34.043Z,100875.84
2023-11-07T17:12:01.184Z,100877.78
2023-11-07T17:14:27.708Z,100882.31
2023-11-07T17:16:54.804Z,100877.53
2023-11-07T17:19:21.529Z,100887.13
2023-11-07T17:21:49.182Z,100891.31
2023-11-07T17:24:17.154Z,100881.97
2023-11-07T17:26:43.741Z,100884.19
2023-11-07T17:29:11.373Z,100877.44
2023-11-07T17:31:38.886Z,100886.34
2023-11-07T17:34:08.357Z,100883.84
2023-11-07T17:36:36.193Z,100886.13
2023-11-07T17:39:04.657Z,100882.47
2023-11-07T17:41:33.364Z,100875.38
2023-11-07T17:44:00.161Z,100871.53
2023-11-07T17:46:26.874Z,100868.72
2023-11-07T17:48:54.316Z,100875.25
2023-11-07T17:51:23.883Z,100867.34
2023-11-07T17:53:53.283Z,100871.97
2023-11-07T17:56:21.138Z,100876.63
2023-11-07T17:58:48.220Z,100871.84
2023-11-07T18:01:19.963Z,100879.06
2023-11-07T18:03:47.112Z,100881.34
2023-11-07T18:06:13.846Z,100887.09
2023-11-07T18:08:40.409Z,100886.94
2023-11-07T18:11:08.576Z,100881.41
2023-11-07T18:13:35.854Z,100889.09
2023-11-07T18:16:02.538Z,100896.38
2023-11-07T18:18:29.301Z,100891.66
2023-11-07T18:20:56.085Z,100891.88
2023-11-07T18:23:22.808Z,100894.34
2023-11-07T18:25:49.384Z,100903.56
2023-11-07T18:28:16.634Z,100902.00
2023-11-07T18:30:45.022Z,100910.41
2023-11-07T18:33:12.531Z,100905.50
2023-11-07T18:35:39.509Z,100903.09
2023-11-07T18:38:06.137Z,100905.78
2023-11-07T18:40:32.730Z,100912.47
2023-11-07T18:42:59.412Z,100914.69
2023-11-07T18:45:25.964Z,100913.91
2023-11-07T18:47:52.537Z,100907.41
2023-11-07T18:50:19.212Z,100910.41
2023-11-07T18:52:45.772Z,100915.81
2023-11-07T18:55:12.263Z,100910.75
2023-11-07T18:57:39.046Z,100917.28
2023-11-07T19:00:09.644Z,100921.13
2023-11-07T19:02:37.091Z,100917.19
2023-11-07T19:05:05.621Z,100917.19
2023-11-07T19:07:32.249Z,100917.19
2023-11-07T19:09:58.874Z,100924.97
2023-11-07T19:12:27.536Z,100905.88
2023-11-07T19:14:55.572Z,100917.03
2023-11-07T19:17:23.540Z,100916.13
2023-11-07T19:19:52.894Z,100907.56
2023-11-07T19:22:22.645Z,100914.41
2023-11-07T19:24:49.189Z,100920.03
2023-11-07T19:27:18.193Z,100920.34
2023-11-07T19:29:44.785Z,100929.25
2023-11-07T19:32:12.269Z,100924.16
2023-11-07T19:34:38.862Z,100937.22
2023-11-07T19:37:06.370Z,100941.50
2023-11-07T19:39:35.455Z,100939.00
2023-11-07T19:42:05.414Z,100931.09
2023-11-07T19:44:34.421Z,100933.34
2023-11-07T19:47:01.392Z,100937.16
2023-11-07T19:49:28.658Z,100943.88
2023-11-07T19:52:02.246Z,100934.84
2023-11-07T19:54:28.996Z,100935.16
2023-11-07T19:56:55.801Z,100936.59
2023-11-07T19:59:22.734Z,100938.53
2023-11-07T20:01:49.914Z,100935.38
2023-11-07T20:04:16.798Z,100943.13
2023-11-07T20:06:43.828Z,100937.59
2023-11-07T20:09:10.539Z,100937.59
2023-11-07T20:11:38.425Z,100939.53
2023-11-07T20:14:05.179Z,100940.31
2023-11-07T20:16:31.711Z,100937.59
2023-11-07T20:18:58.827Z,100939.81
2023-11-07T20:21:25.463Z,100941.75
2023-11-07T20:23:54.510Z,100936.81
2023-11-07T20:26:21.116Z,100951.31
2023-11-07T20:28:50.825Z,100951.16
2023-11-07T20:31:18.201Z,100947.16
2023-11-07T20:33:49.697Z,100945.44
2023-11-07T20:36:18.558Z,100944.03
2023-11-07T20:38:47.292Z,100950.91
2023-11-07T20:41:18.297Z,100953.16
2023-11-07T20:43:45.114Z,100949.16
2023-11-07T20:46:27.154Z,100947.41
2023-11-07T20:49:00.290Z,100958.34
2023-11-07T20:51:26.936Z,100956.44
2023-11-07T20:53:54.509Z,100961.84
2023-11-07T20:56:23.375Z,100970.44
2023-11-07T20:58:50.049Z,100967.88
2023-11-07T21:01:17.777Z,100965.94
2023-11-07T21:03:44.411Z,100964.66
2023-11-07T21:06:11.654Z,100965.00
2023-11-07T21:08:38.925Z,100956.06
2023-11-07T21:11:05.458Z,100959.09
2023-11-07T21:13:32.124Z,100944.78
2023-11-07T21:15:58.636Z,100940.19
2023-11-07T21:18:25.207Z,100937.47
2023-11-07T21:20:51.771Z,100942.41
2023-11-07T21:23:18.831Z,100938.31
2023-11-07T21:25:46.002Z,100949.44
2023-11-07T21:28:12.488Z,100954.41
2023-11-07T21:30:39.161Z,100967.13
2023-11-07T21:33:07.032Z,100956.63
2023-11-07T21:35:33.736Z,100975.22
2023-11-07T21:38:00.218Z,100959.00
2023-11-07T21:40:26.765Z,100955.50
2023-11-07T21:42:53.291Z,100960.13
2023-11-07T21:45:21.133Z,100959.66
2023-11-07T21:47:48.356Z,100948.38
2023-11-07T21:50:15.055Z,100949.16
2023-11-07T21:52:41.791Z,100944.41
2023-11-07T21:55:08.723Z,100946.66
2023-11-07T21:57:37.533Z,100963.31
2023-11-07T22:00:05.100Z,100958.72
2023-11-07T22:02:31.749Z,100961.41
2023-11-07T22:04:58.311Z,100953.66
2023-11-07T22:07:27.783Z,100966.69
2023-11-07T22:09:54.474Z,100969.38
2023-11-07T22:12:21.031Z,100975.91
2023-11-07T22:14:48.434Z,100975.59
2023-11-07T22:17:14.965Z,100979.06
2023-11-07T22:19:41.452Z,100992.59
2023-11-07T22:22:08.135Z,100984.16
2023-11-07T22:24:35.340Z,100984.94
2023-11-07T22:27:02.068Z,100979.88
2023-11-07T22:29:28.801Z,100979.88
2023-11-07T22:31:55.332Z,100988.28
2023-11-07T22:34:22.049Z,100991.34
2023-11-07T22:36:48.706Z,100992.41
2023-11-07T22:39:15.390Z,100976.53
2023-11-07T22:41:42.128Z,100972.25
2023-11-07T22:44:08.744Z,100978.91
2023-11-07T22:46:35.266Z,100976.06
2023-11-07T22:49:02.067Z,100979.56
2023-11-07T22:51:28.651Z,100983.84
2023-11-07T22:53:55.147Z,100973.84
2023-11-07T22:56:22.870Z,100976.22
2023-11-07T22:58:49.386Z,100983.53
2023-11-07T23:01:16.594Z,100986.56
2023-11-07T23:03:43.263Z,100980.81
2023-11-07T23:06:10.085Z,100981.31
2023-11-07T23:08:36.680Z,100971.44
2023-11-07T23:11:03.427Z,100978.88
2023-11-07T23:13:30.660Z,100973.97
2023-11-07T23:15:57.130Z,100982.84
2023-11-07T23:18:23.735Z,100988.59
2023-11-07T23:20:50.516Z,100991.75
2023-11-07T23:23:17.127Z,100988.25
2023-11-07T23:25:48.090Z,100987.78
2023-11-07T23:28:14.719Z,100991.13
2023-11-07T23:30:41.547Z,100993.03
2023-11-07T23:33:08.377Z,100997.19
2023-11-07T23:35:34.947Z,100992.13
2023-11-07T23:38:01.580Z,101005.47
2023-11-07T23:40:29.263Z,100998.81
2023-11-07T23:42:55.852Z,101000.72
2023-11-07T23:45:23.320Z,101005.66
2023-11-07T23:47:50.552Z,101005.66
2023-11-07T23:50:17.441Z,101006.75
2023-11-07T23:52:44.051Z,101017.88
2023-11-07T23:55:10.648Z,101010.88
2023-11-07T23:57:37.873Z,101019.31
